Time;durP1;ratioP1;P1;durP2;ratioP2;P2;SDS_P1;SDS_P2;PMS_P1;PMS_P2;Temp;Humidity;BMP_temperature;BMP_pressure;BME280_temperature;BME280_humidity;BME280_pressure;Samples;Min_cycle;Max_cycle;Signal;HPM_P1;HPM_P2
2023/05/30 00:01:18;;;;;;;2.03;1.80;;;15.70;59.10;;;;;;5105687;27;20687;-69
2023/05/30 00:03:46;;;;;;;2.33;2.13;;;15.70;59.40;;;;;;5112845;27;21181;-69
2023/05/30 00:06:13;;;;;;;2.77;2.57;;;15.60;59.50;;;;;;5117554;27;20660;-69
2023/05/30 00:08:42;;;;;;;2.13;1.93;;;15.50;60.30;;;;;;5125386;27;20629;-69
2023/05/30 00:11:10;;;;;;;2.00;1.77;;;15.60;60.90;;;;;;5109642;27;21002;-69
2023/05/30 00:13:37;;;;;;;2.70;2.00;;;15.50;62.10;;;;;;5104342;27;20734;-69
2023/05/30 00:16:04;;;;;;;2.83;2.13;;;15.10;62.60;;;;;;5118200;27;20644;-69
2023/05/30 00:18:34;;;;;;;2.53;2.30;;;15.00;63.00;;;;;;5119120;27;20619;-69
2023/05/30 00:21:03;;;;;;;1.80;1.70;;;15.10;63.20;;;;;;5113259;27;20672;-69
2023/05/30 00:23:31;;;;;;;2.03;1.77;;;15.10;63.50;;;;;;5116872;27;20629;-69
2023/05/30 00:26:01;;;;;;;2.20;2.00;;;14.90;64.00;;;;;;5116923;27;20657;-69
2023/05/30 00:28:28;;;;;;;2.20;1.73;;;14.90;65.10;;;;;;5114096;27;20621;-69
2023/05/30 00:30:55;;;;;;;2.63;2.47;;;15.00;64.20;;;;;;5118335;27;20667;-69
2023/05/30 00:33:22;;;;;;;2.20;2.00;;;15.00;64.70;;;;;;5107626;27;20630;-69
2023/05/30 00:35:50;;;;;;;1.97;1.87;;;14.80;64.60;;;;;;5119217;27;20656;-69
2023/05/30 00:38:16;;;;;;;2.10;1.83;;;14.90;64.30;;;;;;5099662;27;20624;-69
2023/05/30 00:40:44;;;;;;;2.30;1.87;;;14.90;64.70;;;;;;5122420;27;20656;-69
2023/05/30 00:43:12;;;;;;;2.37;2.00;;;14.90;64.90;;;;;;5111278;27;20712;-69
2023/05/30 00:45:40;;;;;;;3.87;2.00;;;15.00;64.90;;;;;;5114717;27;20649;-69
2023/05/30 00:48:06;;;;;;;2.67;2.00;;;15.00;65.10;;;;;;5110846;27;21110;-69
2023/05/30 00:50:34;;;;;;;4.20;2.00;;;15.10;64.00;;;;;;5122416;27;20655;-69
2023/05/30 00:53:01;;;;;;;2.47;2.27;;;15.10;63.10;;;;;;5121615;27;21348;-69
2023/05/30 00:55:28;;;;;;;3.90;1.93;;;15.00;64.60;;;;;;5117263;27;20671;-69
2023/05/30 00:57:56;;;;;;;2.93;2.60;;;15.00;64.60;;;;;;5113265;27;21193;-69
2023/05/30 01:00:26;;;;;;;2.27;2.07;;;14.80;65.40;;;;;;5108443;27;20633;-69
2023/05/30 01:02:59;;;;;;;2.33;2.13;;;14.80;66.20;;;;;;5116856;27;20620;-69
2023/05/30 01:05:26;;;;;;;2.20;2.10;;;14.80;66.20;;;;;;5118316;27;20777;-69
2023/05/30 01:07:53;;;;;;;2.47;2.27;;;14.90;66.00;;;;;;5120072;27;20991;-69
2023/05/30 01:10:21;;;;;;;3.53;2.50;;;14.80;65.80;;;;;;5120933;27;20723;-69
2023/05/30 01:13:01;;;;;;;2.60;2.40;;;14.90;65.70;;;;;;5116298;27;20632;-69
2023/05/30 01:15:33;;;;;;;2.53;2.10;;;15.00;65.60;;;;;;5119795;27;21188;-69
2023/05/30 01:18:04;;;;;;;2.37;2.13;;;15.00;65.70;;;;;;5106970;27;21068;-69
2023/05/30 01:20:37;;;;;;;3.13;2.17;;;15.00;64.80;;;;;;5118554;27;21359;-69
2023/05/30 01:23:20;;;;;;;2.63;2.40;;;14.90;65.60;;;;;;5108887;27;20745;-69
2023/05/30 01:26:00;;;;;;;2.37;1.97;;;15.00;65.00;;;;;;5118381;27;20691;-69
2023/05/30 01:28:33;;;;;;;2.50;2.30;;;15.00;65.40;;;;;;5117199;27;20713;-69
2023/05/30 01:31:02;;;;;;;6.97;2.60;;;15.00;65.70;;;;;;5105853;27;20665;-69
2023/05/30 01:33:31;;;;;;;1.97;1.83;;;15.00;66.00;;;;;;5115217;27;20638;-69
2023/05/30 01:35:58;;;;;;;2.83;2.33;;;15.00;66.00;;;;;;5112861;27;20649;-69
2023/05/30 01:38:26;;;;;;;3.10;1.90;;;15.00;66.10;;;;;;5121865;27;21000;-69
2023/05/30 01:40:55;;;;;;;2.10;1.90;;;14.90;66.50;;;;;;5120814;27;20649;-69
2023/05/30 01:43:37;;;;;;;3.30;2.60;;;14.90;66.00;;;;;;5103604;27;20620;-69
2023/05/30 01:46:13;;;;;;;3.60;3.30;;;15.00;65.40;;;;;;5109348;27;20768;-69
2023/05/30 01:48:49;;;;;;;5.07;2.53;;;14.90;66.40;;;;;;5114656;27;20624;-69
2023/05/30 01:51:25;;;;;;;1.70;1.60;;;14.90;65.50;;;;;;5118906;27;20684;-69
2023/05/30 01:53:59;;;;;;;2.50;2.00;;;14.70;67.40;;;;;;5115204;27;20637;-69
2023/05/30 01:56:28;;;;;;;3.47;1.80;;;14.70;67.10;;;;;;5116346;27;20646;-69
2023/05/30 01:58:58;;;;;;;1.80;1.70;;;14.60;67.00;;;;;;5116135;27;20685;-69
2023/05/30 02:01:29;;;;;;;2.60;1.90;;;14.60;68.00;;;;;;5108077;27;20714;-69
2023/05/30 02:03:56;;;;;;;2.90;2.40;;;14.70;67.60;;;;;;5114149;27;20629;-69
2023/05/30 02:06:24;;;;;;;1.67;1.57;;;14.70;67.10;;;;;;5115156;27;20652;-69
2023/05/30 02:08:53;;;;;;;3.13;2.33;;;14.70;66.80;;;;;;5119620;27;20618;-69
2023/05/30 02:11:20;;;;;;;2.33;2.10;;;14.60;68.60;;;;;;5116150;27;20986;-69
2023/05/30 02:13:48;;;;;;;2.10;1.90;;;14.60;67.30;;;;;;5117825;27;20638;-69
2023/05/30 02:16:18;;;;;;;2.93;2.37;;;14.60;68.00;;;;;;5117470;27;20705;-69
2023/05/30 02:18:45;;;;;;;2.67;2.40;;;14.60;68.10;;;;;;5116483;27;20702;-69
2023/05/30 02:21:12;;;;;;;3.03;1.93;;;14.50;68.70;;;;;;5114654;27;20697;-70
2023/05/30 02:23:39;;;;;;;2.37;2.17;;;14.40;69.10;;;;;;5111129;27;20629;-69
2023/05/30 02:26:06;;;;;;;3.50;3.07;;;14.40;69.20;;;;;;5120448;27;20998;-69
2023/05/30 02:28:33;;;;;;;5.40;1.90;;;14.40;69.50;;;;;;5112882;27;21192;-69
2023/05/30 02:31:01;;;;;;;1.83;1.73;;;14.40;69.50;;;;;;5116991;27;20988;-69
2023/05/30 02:33:29;;;;;;;3.07;2.70;;;14.30;69.80;;;;;;5114826;27;20626;-69
2023/05/30 02:35:56;;;;;;;2.53;2.20;;;14.30;69.70;;;;;;5111423;27;20664;-69
2023/05/30 02:38:23;;;;;;;3.80;3.40;;;14.40;68.80;;;;;;5116912;27;21615;-69
2023/05/30 02:40:51;;;;;;;4.33;2.17;;;14.40;69.30;;;;;;5115916;27;21113;-69
2023/05/30 02:43:18;;;;;;;2.43;2.13;;;14.30;69.80;;;;;;5119600;27;21273;-69
2023/05/30 02:45:46;;;;;;;3.10;2.43;;;14.30;69.70;;;;;;5117235;27;20754;-69
2023/05/30 02:48:14;;;;;;;2.23;2.03;;;14.30;69.30;;;;;;5118213;27;20719;-69
2023/05/30 02:50:42;;;;;;;2.57;2.37;;;14.30;70.70;;;;;;5112972;27;20652;-69
2023/05/30 02:53:12;;;;;;;2.97;2.53;;;14.30;70.50;;;;;;5116560;27;20645;-69
2023/05/30 02:55:42;;;;;;;1.87;1.77;;;14.20;70.60;;;;;;5120643;27;20658;-69
2023/05/30 02:58:11;;;;;;;3.80;2.23;;;14.20;70.30;;;;;;5116568;27;20648;-69
2023/05/30 03:00:38;;;;;;;2.73;2.53;;;14.30;70.40;;;;;;5116590;27;20644;-69
2023/05/30 03:03:08;;;;;;;2.00;1.90;;;14.20;70.60;;;;;;5108509;27;21024;-69
2023/05/30 03:05:35;;;;;;;2.47;2.10;;;14.10;71.30;;;;;;5105605;27;20661;-69
2023/05/30 03:08:04;;;;;;;2.87;1.90;;;14.10;71.60;;;;;;5117096;27;21393;-69
2023/05/30 03:10:32;;;;;;;3.13;2.30;;;14.00;72.10;;;;;;5118558;27;20667;-69
2023/05/30 03:12:59;;;;;;;3.00;2.80;;;14.00;72.00;;;;;;5113162;27;20635;-69
2023/05/30 03:15:27;;;;;;;3.57;2.10;;;13.90;72.10;;;;;;5118606;27;20647;-69
2023/05/30 03:17:54;;;;;;;2.90;2.03;;;14.00;72.00;;;;;;5114793;27;21246;-69
2023/05/30 03:20:23;;;;;;;3.17;1.90;;;14.10;71.40;;;;;;5115872;27;21187;-69
2023/05/30 03:22:50;;;;;;;2.83;2.63;;;14.00;72.30;;;;;;5118051;27;20691;-69
2023/05/30 03:25:19;;;;;;;2.10;1.90;;;14.00;72.20;;;;;;5109126;27;20681;-69
2023/05/30 03:27:50;;;;;;;3.57;2.33;;;13.90;72.70;;;;;;5114940;27;20729;-69
2023/05/30 03:30:20;;;;;;;4.20;3.53;;;13.90;73.80;;;;;;5114966;27;20711;-69
2023/05/30 03:32:48;;;;;;;1.60;1.50;;;13.80;73.90;;;;;;5102052;28;20666;-69
2023/05/30 03:35:16;;;;;;;4.60;2.23;;;13.70;74.50;;;;;;5107547;27;20632;-69
2023/05/30 03:37:43;;;;;;;2.90;1.93;;;13.60;74.60;;;;;;5116254;27;20615;-69
2023/05/30 03:40:11;;;;;;;1.67;1.50;;;13.70;74.40;;;;;;5115880;28;20734;-69
2023/05/30 03:42:39;;;;;;;2.60;1.57;;;13.60;74.80;;;;;;5108333;27;20656;-69
2023/05/30 03:45:07;;;;;;;2.43;2.10;;;13.60;75.00;;;;;;5114083;28;20627;-69
2023/05/30 03:47:34;;;;;;;1.90;1.80;;;13.70;74.50;;;;;;5119379;28;20614;-69
2023/05/30 03:50:01;;;;;;;1.60;1.40;;;13.80;74.20;;;;;;5118389;28;21058;-69
2023/05/30 03:52:28;;;;;;;2.40;1.87;;;13.80;74.50;;;;;;5109113;28;20644;-69
2023/05/30 03:54:54;;;;;;;2.60;2.37;;;13.90;74.00;;;;;;5111645;28;20631;-69
2023/05/30 03:57:21;;;;;;;1.90;1.80;;;13.90;74.20;;;;;;5112012;27;20760;-69
2023/05/30 03:59:50;;;;;;;2.17;1.90;;;13.90;74.40;;;;;;5114428;27;20639;-69
2023/05/30 04:02:16;;;;;;;4.73;2.60;;;14.00;74.20;;;;;;5111520;28;20670;-69
2023/05/30 04:04:43;;;;;;;3.53;2.90;;;14.00;73.60;;;;;;5113048;28;20634;-69
2023/05/30 04:07:10;;;;;;;4.20;2.40;;;14.00;73.60;;;;;;5110466;28;20842;-69
2023/05/30 04:09:37;;;;;;;2.23;1.90;;;13.90;74.70;;;;;;5115539;28;20633;-69
2023/05/30 04:12:04;;;;;;;3.07;1.80;;;14.00;74.60;;;;;;5108118;28;20660;-69
2023/05/30 04:14:30;;;;;;;2.70;1.77;;;13.90;74.50;;;;;;5121261;27;20634;-69
2023/05/30 04:16:59;;;;;;;2.27;1.90;;;13.80;75.00;;;;;;5115862;28;20649;-69
2023/05/30 04:19:25;;;;;;;2.77;2.37;;;14.00;74.30;;;;;;5113959;28;20627;-69
2023/05/30 04:21:52;;;;;;;1.90;1.80;;;14.00;75.70;;;;;;5117689;28;20668;-69
2023/05/30 04:24:19;;;;;;;2.57;2.00;;;14.00;75.40;;;;;;5118967;28;20665;-69
2023/05/30 04:26:49;;;;;;;5.80;2.87;;;13.90;74.90;;;;;;5114491;28;20648;-69
2023/05/30 04:29:15;;;;;;;2.80;2.30;;;14.00;75.80;;;;;;5112021;28;20633;-69
2023/05/30 04:31:43;;;;;;;2.20;2.10;;;14.10;76.00;;;;;;5113972;28;20675;-69
2023/05/30 04:34:11;;;;;;;2.87;2.00;;;14.00;75.40;;;;;;5107370;28;21210;-69
2023/05/30 04:36:40;;;;;;;3.40;2.20;;;14.00;75.50;;;;;;5116650;28;20648;-69
2023/05/30 04:39:07;;;;;;;2.80;2.20;;;14.00;75.70;;;;;;5116768;27;20720;-69
2023/05/30 04:41:35;;;;;;;2.17;2.07;;;13.90;76.40;;;;;;5117753;27;20654;-69
2023/05/30 04:44:02;;;;;;;2.50;2.30;;;13.80;76.70;;;;;;5113742;28;21193;-69
2023/05/30 04:46:29;;;;;;;2.87;2.10;;;13.70;76.80;;;;;;5120270;27;20753;-69
2023/05/30 04:49:00;;;;;;;1.83;1.73;;;13.70;77.40;;;;;;5122412;27;20619;-69
2023/05/30 04:51:29;;;;;;;2.40;1.77;;;13.90;77.60;;;;;;5118418;27;20647;-69
2023/05/30 04:53:55;;;;;;;2.90;2.03;;;13.90;78.70;;;;;;5119376;27;20622;-69
2023/05/30 04:56:22;;;;;;;4.43;3.63;;;13.90;78.00;;;;;;5120390;27;20653;-69
2023/05/30 04:58:51;;;;;;;1.67;1.57;;;13.90;77.40;;;;;;5118138;27;20628;-69
2023/05/30 05:01:18;;;;;;;2.53;2.33;;;13.90;77.80;;;;;;5118283;27;20705;-69
2023/05/30 05:03:45;;;;;;;3.17;2.13;;;13.90;78.60;;;;;;5116532;27;20751;-69
2023/05/30 05:06:13;;;;;;;3.20;2.40;;;13.80;78.00;;;;;;5123194;27;21019;-68
2023/05/30 05:08:41;;;;;;;2.47;2.27;;;13.90;78.30;;;;;;5119104;27;20711;-68
2023/05/30 05:11:08;;;;;;;2.53;2.33;;;13.90;78.30;;;;;;5104500;27;20658;-68
2023/05/30 05:13:36;;;;;;;1.80;1.70;;;13.90;79.00;;;;;;5119807;27;20627;-67
2023/05/30 05:16:06;;;;;;;2.60;2.10;;;13.90;78.80;;;;;;5121870;27;20739;-68
2023/05/30 05:18:33;;;;;;;7.90;2.07;;;13.90;79.10;;;;;;5120331;27;20723;-68
2023/05/30 05:21:00;;;;;;;2.20;2.10;;;13.90;79.00;;;;;;5110755;27;21297;-68
2023/05/30 05:23:28;;;;;;;2.20;2.00;;;14.00;79.80;;;;;;5118438;27;20673;-68
2023/05/30 05:25:56;;;;;;;4.10;2.87;;;14.10;79.60;;;;;;5120625;27;20999;-68
2023/05/30 05:28:23;;;;;;;2.97;2.50;;;14.00;80.00;;;;;;5121851;27;20619;-68
2023/05/30 05:30:49;;;;;;;2.23;1.73;;;14.10;79.60;;;;;;5120078;27;20663;-68
2023/05/30 05:33:16;;;;;;;2.67;2.20;;;14.10;79.50;;;;;;5117402;27;20625;-67
2023/05/30 05:35:45;;;;;;;2.60;2.00;;;14.10;80.00;;;;;;5118281;27;20648;-68
2023/05/30 05:38:12;;;;;;;2.90;2.03;;;14.10;79.80;;;;;;5120828;27;20637;-67
2023/05/30 05:40:39;;;;;;;2.47;2.27;;;14.20;79.70;;;;;;5117892;27;20643;-68
2023/05/30 05:43:07;;;;;;;2.27;2.07;;;14.40;80.30;;;;;;5116825;27;20667;-68
2023/05/30 05:45:34;;;;;;;1.40;1.30;;;14.40;79.40;;;;;;5110399;27;20650;-68
2023/05/30 05:48:01;;;;;;;2.80;2.20;;;14.50;78.40;;;;;;5114598;27;20666;-69
2023/05/30 05:50:28;;;;;;;2.07;1.73;;;14.70;78.20;;;;;;5110889;27;20647;-68
2023/05/30 05:52:55;;;;;;;3.00;2.37;;;14.90;78.10;;;;;;5111419;27;20620;-67
2023/05/30 05:55:21;;;;;;;1.80;1.70;;;14.80;77.50;;;;;;5115020;27;20632;-68
2023/05/30 05:57:48;;;;;;;3.40;2.37;;;15.00;77.70;;;;;;5111359;27;20640;-68
2023/05/30 06:00:17;;;;;;;2.10;1.90;;;14.90;77.00;;;;;;5115276;27;20627;-68
2023/05/30 06:02:44;;;;;;;2.33;2.13;;;14.90;77.00;;;;;;5118302;27;20685;-68
2023/05/30 06:05:11;;;;;;;4.30;3.00;;;14.80;77.20;;;;;;5117402;27;21256;-68
2023/05/30 06:07:37;;;;;;;2.10;1.70;;;14.90;77.80;;;;;;5120180;27;20618;-68
2023/05/30 06:10:05;;;;;;;3.55;2.33;;;14.80;77.00;;;;;;5119629;27;20845;-69
2023/05/30 06:12:32;;;;;;;2.17;1.97;;;15.10;77.30;;;;;;5118211;27;20199;-68
2023/05/30 06:14:59;;;;;;;3.70;2.37;;;15.20;77.70;;;;;;5105639;27;20618;-69
2023/05/30 06:17:27;;;;;;;3.07;2.30;;;15.40;75.90;;;;;;5119660;27;20640;-69
2023/05/30 06:19:53;;;;;;;2.90;2.30;;;15.60;76.20;;;;;;5115947;27;20627;-69
2023/05/30 06:22:21;;;;;;;1.60;1.50;;;15.60;75.50;;;;;;5115440;27;20764;-69
2023/05/30 06:24:48;;;;;;;2.77;2.50;;;15.60;75.10;;;;;;5118844;27;20660;-69
2023/05/30 06:27:15;;;;;;;3.60;2.50;;;15.60;74.80;;;;;;5119616;27;21244;-68
2023/05/30 06:29:42;;;;;;;2.00;1.63;;;15.90;73.30;;;;;;5119738;27;20984;-69
2023/05/30 06:32:09;;;;;;;5.70;2.40;;;15.90;74.10;;;;;;5116908;27;20752;-69
2023/05/30 06:34:37;;;;;;;2.43;2.20;;;16.00;73.20;;;;;;5117274;27;20628;-69
2023/05/30 06:37:05;;;;;;;1.90;1.60;;;16.10;73.20;;;;;;5119037;27;20657;-69
2023/05/30 06:39:32;;;;;;;4.83;2.30;;;16.00;73.40;;;;;;5119689;27;20672;-69
2023/05/30 06:41:59;;;;;;;2.73;2.23;;;16.00;73.20;;;;;;5117891;27;21228;-69
2023/05/30 06:44:25;;;;;;;2.93;1.67;;;15.90;74.60;;;;;;5116861;27;20671;-69
2023/05/30 06:46:52;;;;;;;1.77;1.67;;;16.00;74.10;;;;;;5115602;27;20641;-70
2023/05/30 06:49:19;;;;;;;2.40;2.20;;;16.10;73.70;;;;;;5119033;27;20624;-70
2023/05/30 06:51:47;;;;;;;2.90;2.43;;;16.10;74.20;;;;;;5119905;27;21071;-70
2023/05/30 06:54:14;;;;;;;2.80;2.37;;;16.30;73.60;;;;;;5118803;27;20621;-70
2023/05/30 06:56:41;;;;;;;2.57;1.53;;;16.50;74.40;;;;;;5116504;27;20650;-70
2023/05/30 06:59:08;;;;;;;1.73;1.53;;;16.50;73.10;;;;;;5116948;27;20629;-67
2023/05/30 07:01:34;;;;;;;2.83;2.00;;;16.40;73.40;;;;;;5118469;27;20663;-69
2023/05/30 07:04:01;;;;;;;1.93;1.70;;;16.90;72.20;;;;;;5119537;27;21029;-69
2023/05/30 07:06:28;;;;;;;1.77;1.63;;;16.80;71.60;;;;;;5118207;27;20665;-69
2023/05/30 07:08:56;;;;;;;2.97;1.70;;;16.80;70.90;;;;;;5115470;27;20637;-69
2023/05/30 07:11:23;;;;;;;2.63;2.10;;;17.00;69.60;;;;;;5115762;27;20649;-69
2023/05/30 07:13:50;;;;;;;4.17;2.00;;;16.90;69.20;;;;;;5119479;27;21203;-69
2023/05/30 07:16:17;;;;;;;1.40;1.30;;;16.90;69.50;;;;;;5119374;27;20681;-69
2023/05/30 07:18:43;;;;;;;3.33;2.53;;;16.70;69.80;;;;;;5117634;27;20621;-69
2023/05/30 07:21:11;;;;;;;2.30;2.10;;;16.80;69.70;;;;;;5115552;27;20658;-69
2023/05/30 07:23:38;;;;;;;1.73;1.63;;;16.70;69.60;;;;;;5115380;27;20674;-69
2023/05/30 07:26:06;;;;;;;4.00;1.77;;;16.90;69.40;;;;;;5119596;27;20650;-69
2023/05/30 07:28:33;;;;;;;2.00;1.90;;;16.90;70.60;;;;;;5119197;27;20616;-69
2023/05/30 07:30:59;;;;;;;2.67;1.87;;;17.10;69.80;;;;;;5116454;27;20660;-68
2023/05/30 07:33:26;;;;;;;2.33;1.97;;;17.40;69.10;;;;;;5115937;27;20985;-68
2023/05/30 07:35:53;;;;;;;1.80;1.70;;;17.60;67.50;;;;;;5116809;27;20677;-68
2023/05/30 07:38:20;;;;;;;2.57;1.77;;;17.70;66.60;;;;;;5118343;27;20628;-68
2023/05/30 07:40:46;;;;;;;2.23;1.93;;;17.80;68.40;;;;;;5118952;27;20654;-69
2023/05/30 07:43:14;;;;;;;2.30;1.87;;;17.60;69.20;;;;;;5118751;28;20658;-69
2023/05/30 07:45:41;;;;;;;2.70;2.00;;;17.40;68.50;;;;;;5119293;28;20649;-69
2023/05/30 07:48:08;;;;;;;2.43;2.10;;;17.80;66.80;;;;;;5116667;28;20979;-69
2023/05/30 07:50:35;;;;;;;3.20;1.63;;;18.00;66.30;;;;;;5115126;28;21250;-68
2023/05/30 07:53:02;;;;;;;3.40;2.37;;;17.90;66.80;;;;;;5115488;28;20631;-69
2023/05/30 07:55:28;;;;;;;2.40;2.20;;;17.70;67.70;;;;;;5118620;28;20646;-69
2023/05/30 07:57:55;;;;;;;1.70;1.60;;;17.50;67.50;;;;;;5119255;28;20660;-69
2023/05/30 08:00:23;;;;;;;2.43;2.10;;;17.30;67.00;;;;;;5116915;28;20619;-69
2023/05/30 08:02:50;;;;;;;2.83;2.17;;;17.20;67.90;;;;;;5115856;28;20622;-69
2023/05/30 08:05:17;;;;;;;3.60;2.80;;;17.30;68.90;;;;;;5114831;28;20634;-69
2023/05/30 08:07:44;;;;;;;2.20;2.00;;;17.70;69.10;;;;;;5107928;28;20973;-69
2023/05/30 08:10:11;;;;;;;4.50;2.80;;;18.00;66.50;;;;;;5114904;28;20632;-69
2023/05/30 08:12:38;;;;;;;3.10;2.07;;;17.70;65.80;;;;;;5117411;28;20727;-69
2023/05/30 08:15:07;;;;;;;2.60;1.80;;;17.70;67.50;;;;;;5119272;28;21232;-69
2023/05/30 08:17:35;;;;;;;3.13;2.23;;;18.20;66.80;;;;;;5118533;27;20626;-69
2023/05/30 08:20:03;;;;;;;2.10;1.60;;;18.40;67.10;;;;;;5114787;27;20628;-69
2023/05/30 08:22:31;;;;;;;2.13;1.93;;;18.40;66.50;;;;;;5119516;27;21086;-69
2023/05/30 08:25:00;;;;;;;6.00;1.87;;;18.40;66.50;;;;;;5122325;27;20675;-69
2023/05/30 08:27:27;;;;;;;3.27;2.10;;;18.60;65.00;;;;;;5122819;27;20754;-69
2023/05/30 08:29:55;;;;;;;2.67;2.20;;;18.50;66.30;;;;;;5120622;27;20635;-69
2023/05/30 08:32:22;;;;;;;3.23;1.77;;;18.20;65.50;;;;;;5118684;27;20756;-69
2023/05/30 08:34:50;;;;;;;2.83;1.97;;;18.30;66.90;;;;;;5119759;27;20647;-69
2023/05/30 08:37:18;;;;;;;3.43;1.83;;;18.80;63.30;;;;;;5122618;27;20696;-69
2023/05/30 08:39:45;;;;;;;1.77;1.63;;;18.80;64.90;;;;;;5121991;27;20618;-69
2023/05/30 08:42:12;;;;;;;2.90;2.60;;;18.90;65.80;;;;;;5119658;27;20643;-69
2023/05/30 08:44:39;;;;;;;1.87;1.77;;;19.00;65.90;;;;;;5119513;27;20723;-68
2023/05/30 08:47:12;;;;;;;3.07;1.80;;;19.30;64.40;;;;;;5119354;27;20666;-68
2023/05/30 08:49:42;;;;;;;2.10;1.90;;;19.30;63.20;;;;;;5120314;27;20622;-68
2023/05/30 08:52:13;;;;;;;2.30;1.73;;;19.20;63.10;;;;;;5121681;27;20650;-69
2023/05/30 08:54:42;;;;;;;2.10;1.90;;;19.20;63.90;;;;;;5118865;27;20636;-69
2023/05/30 08:57:15;;;;;;;2.17;1.90;;;19.10;63.80;;;;;;5119139;27;21042;-69
2023/05/30 08:59:43;;;;;;;2.03;1.83;;;19.20;61.90;;;;;;5107342;27;20606;-69
2023/05/30 09:02:12;;;;;;;2.23;2.03;;;19.40;63.50;;;;;;5122061;27;20752;-69
2023/05/30 09:04:39;;;;;;;2.03;1.93;;;19.60;63.00;;;;;;5119318;27;20671;-69
2023/05/30 09:07:07;;;;;;;3.30;2.80;;;19.60;62.60;;;;;;5118636;27;20640;-69
2023/05/30 09:09:36;;;;;;;2.87;2.57;;;19.50;61.10;;;;;;5119769;27;20623;-69
2023/05/30 09:12:03;;;;;;;3.37;1.80;;;20.00;59.80;;;;;;5120372;27;20654;-68
2023/05/30 09:14:30;;;;;;;2.87;2.27;;;19.80;59.00;;;;;;5121840;27;20726;-69
2023/05/30 09:16:57;;;;;;;2.30;1.90;;;19.80;60.50;;;;;;5118232;27;21330;-69
2023/05/30 09:19:24;;;;;;;3.33;2.30;;;20.10;60.00;;;;;;5118381;27;20701;-69
2023/05/30 09:21:52;;;;;;;2.23;2.07;;;20.50;59.90;;;;;;5120268;27;20771;-69
2023/05/30 09:24:18;;;;;;;2.77;2.20;;;20.70;60.60;;;;;;5121217;27;20655;-69
2023/05/30 09:27:01;;;;;;;2.80;1.80;;;20.80;58.80;;;;;;5120189;27;20654;-69
2023/05/30 09:29:28;;;;;;;3.07;2.10;;;20.90;58.20;;;;;;5118082;27;21090;-69
2023/05/30 09:31:57;;;;;;;1.80;1.70;;;20.90;58.10;;;;;;5119150;27;20663;-69
2023/05/30 09:34:23;;;;;;;2.80;2.60;;;20.90;58.80;;;;;;5121204;27;20619;-68
2023/05/30 09:36:56;;;;;;;2.60;2.40;;;20.60;57.80;;;;;;5121344;27;21010;-69
2023/05/30 09:39:25;;;;;;;2.67;2.07;;;20.50;58.40;;;;;;5110004;27;20612;-69
2023/05/30 09:41:58;;;;;;;5.13;1.73;;;20.50;58.90;;;;;;5125258;27;20658;-69
2023/05/30 09:44:25;;;;;;;3.07;1.90;;;20.70;59.00;;;;;;5109788;27;20663;-69
2023/05/30 09:46:56;;;;;;;2.20;1.90;;;20.80;58.00;;;;;;5118346;27;20701;-69
2023/05/30 09:49:23;;;;;;;2.57;2.17;;;21.00;59.40;;;;;;5120050;27;20957;-70
2023/05/30 09:51:50;;;;;;;2.43;2.23;;;21.30;59.30;;;;;;5120992;27;20730;-69
2023/05/30 09:54:17;;;;;;;3.00;2.03;;;21.50;59.10;;;;;;5119702;27;21310;-68
2023/05/30 09:56:44;;;;;;;3.77;2.40;;;21.60;57.30;;;;;;5117673;27;20766;-69
2023/05/30 09:59:14;;;;;;;3.20;2.03;;;21.80;58.50;;;;;;5117977;27;20630;-69
2023/05/30 10:01:42;;;;;;;2.13;2.00;;;21.90;56.20;;;;;;5108839;27;20701;-69
2023/05/30 10:04:16;;;;;;;2.90;2.10;;;21.90;56.60;;;;;;5117065;27;20969;-70
2023/05/30 10:06:44;;;;;;;2.43;2.13;;;22.10;56.80;;;;;;5120747;27;20662;-69
2023/05/30 10:09:12;;;;;;;3.07;2.80;;;21.90;57.80;;;;;;5120945;27;20619;-69
2023/05/30 10:11:39;;;;;;;2.67;2.07;;;22.20;56.50;;;;;;5118522;27;20639;-69
2023/05/30 10:14:06;;;;;;;2.90;2.60;;;22.40;56.10;;;;;;5117210;27;20658;-70
2023/05/30 10:16:36;;;;;;;2.20;2.00;;;22.40;56.50;;;;;;5117358;27;20655;-70
2023/05/30 10:19:05;;;;;;;3.63;2.43;;;22.30;55.80;;;;;;5120766;27;20622;-70
2023/05/30 10:21:33;;;;;;;3.70;2.47;;;22.20;56.00;;;;;;5120125;27;20650;-69
2023/05/30 10:24:02;;;;;;;2.73;2.53;;;22.60;54.90;;;;;;5108719;27;21397;-70
2023/05/30 10:26:31;;;;;;;3.47;2.50;;;22.80;55.00;;;;;;5117090;27;21568;-70
2023/05/30 10:29:01;;;;;;;2.30;2.10;;;22.80;55.30;;;;;;5118463;27;21073;-70
2023/05/30 10:31:29;;;;;;;1.90;1.80;;;23.10;56.20;;;;;;5119959;27;21013;-70
2023/05/30 10:34:02;;;;;;;1.93;1.83;;;23.40;55.50;;;;;;5118449;27;20983;-69
2023/05/30 10:36:30;;;;;;;2.63;2.43;;;23.40;54.90;;;;;;5114725;27;20663;-70
2023/05/30 10:39:08;;;;;;;3.00;2.70;;;23.50;54.50;;;;;;5115855;27;21044;-69
2023/05/30 10:41:43;;;;;;;2.77;2.00;;;23.60;54.40;;;;;;5116917;27;20647;-70
2023/05/30 10:44:19;;;;;;;4.13;2.87;;;23.60;53.90;;;;;;5115818;27;20684;-70
2023/05/30 10:46:54;;;;;;;2.10;1.87;;;23.60;53.20;;;;;;5115732;27;20658;-70
2023/05/30 10:49:25;;;;;;;3.13;2.90;;;23.80;53.10;;;;;;5118418;27;20611;-70
2023/05/30 10:52:00;;;;;;;2.87;2.47;;;23.80;53.50;;;;;;5119273;27;20723;-70
2023/05/30 10:54:30;;;;;;;3.40;2.30;;;24.20;53.20;;;;;;5117398;27;20640;-70
2023/05/30 10:56:57;;;;;;;2.37;2.17;;;24.30;54.80;;;;;;5116581;27;20652;-71
2023/05/30 10:59:24;;;;;;;2.40;2.10;;;24.40;52.30;;;;;;5117575;27;20627;-70
2023/05/30 11:02:01;;;;;;;2.70;2.50;;;24.50;52.50;;;;;;5119586;27;21074;-69
2023/05/30 11:04:35;;;;;;;2.73;2.40;;;24.60;52.00;;;;;;5118017;27;20662;-69
2023/05/30 11:07:04;;;;;;;2.50;2.33;;;24.70;52.50;;;;;;5116528;27;20647;-69
2023/05/30 11:09:31;;;;;;;3.17;1.90;;;24.80;52.10;;;;;;5117658;27;20628;-69
2023/05/30 11:11:59;;;;;;;2.27;2.07;;;24.90;52.70;;;;;;5119990;27;21021;-69
2023/05/30 11:14:27;;;;;;;2.43;2.23;;;25.10;52.80;;;;;;5120043;27;20631;-69
2023/05/30 11:17:00;;;;;;;2.67;1.90;;;25.20;49.80;;;;;;5107225;27;20975;-69
2023/05/30 11:19:27;;;;;;;4.03;3.03;;;25.20;50.70;;;;;;5116404;27;20620;-69
2023/05/30 11:21:57;;;;;;;3.20;1.97;;;25.30;50.40;;;;;;5118992;27;20662;-69
2023/05/30 11:24:24;;;;;;;1.70;1.60;;;25.40;49.70;;;;;;5119790;27;20673;-69
2023/05/30 11:26:58;;;;;;;2.50;2.23;;;25.50;50.20;;;;;;5117900;27;20771;-69
2023/05/30 11:29:33;;;;;;;2.57;2.30;;;25.80;51.20;;;;;;5114735;27;20621;-69
2023/05/30 11:32:01;;;;;;;2.63;2.10;;;25.80;50.20;;;;;;5118623;27;20654;-69
2023/05/30 11:34:28;;;;;;;3.27;2.53;;;25.90;49.20;;;;;;5117106;27;20939;-68
2023/05/30 11:36:58;;;;;;;3.70;2.70;;;26.20;47.60;;;;;;5117127;27;20652;-69
2023/05/30 11:39:25;;;;;;;2.70;2.27;;;26.50;49.00;;;;;;5118615;27;20680;-69
2023/05/30 11:41:52;;;;;;;3.90;2.53;;;26.70;48.60;;;;;;5118311;27;21205;-68
2023/05/30 11:44:20;;;;;;;2.70;2.50;;;27.00;48.30;;;;;;5115728;27;20673;-68
2023/05/30 11:46:58;;;;;;;2.57;2.37;;;27.60;46.50;;;;;;5116305;27;20667;-68
2023/05/30 11:49:26;;;;;;;2.33;1.90;;;27.50;47.40;;;;;;5107194;28;20622;-68
2023/05/30 11:51:53;;;;;;;2.60;2.40;;;26.80;46.80;;;;;;5116230;28;20757;-69
2023/05/30 11:54:21;;;;;;;3.30;3.00;;;26.50;47.00;;;;;;5117395;27;20635;-68
2023/05/30 11:56:50;;;;;;;2.20;2.00;;;27.20;46.50;;;;;;5123499;27;21095;-69
2023/05/30 11:59:19;;;;;;;2.33;2.13;;;27.50;48.40;;;;;;5115956;27;20624;-69
2023/05/30 12:01:51;;;;;;;2.53;1.90;;;28.50;45.70;;;;;;5123346;27;21266;-69
2023/05/30 12:04:21;;;;;;;2.53;1.97;;;29.10;44.90;;;;;;5122912;27;20643;-69
2023/05/30 12:06:48;;;;;;;2.20;2.10;;;29.90;45.00;;;;;;5119712;27;21006;-69
2023/05/30 12:09:15;;;;;;;3.73;2.23;;;30.30;43.40;;;;;;5119452;27;20612;-69
2023/05/30 12:11:52;;;;;;;1.70;1.60;;;31.40;42.40;;;;;;5122563;27;21056;-70
2023/05/30 12:14:21;;;;;;;2.63;2.43;;;31.00;41.90;;;;;;5123034;27;20623;-70
2023/05/30 12:16:54;;;;;;;2.10;1.90;;;30.90;42.90;;;;;;5120370;27;21117;-69
2023/05/30 12:19:21;;;;;;;2.17;2.00;;;31.10;42.20;;;;;;5118870;27;20635;-69
2023/05/30 12:21:51;;;;;;;2.00;1.80;;;32.00;42.20;;;;;;5126057;27;21068;-70
2023/05/30 12:24:22;;;;;;;2.30;1.93;;;32.20;41.10;;;;;;5119495;27;20662;-69
2023/05/30 12:26:49;;;;;;;9.20;3.10;;;32.10;41.20;;;;;;5121176;27;20647;-70
2023/05/30 12:29:17;;;;;;;1.93;1.80;;;33.00;39.50;;;;;;5122693;27;20615;-70
2023/05/30 12:31:44;;;;;;;2.40;2.20;;;33.20;39.10;;;;;;5122403;27;20665;-70
2023/05/30 12:34:12;;;;;;;2.13;1.93;;;33.40;39.70;;;;;;5118835;27;21193;-70
2023/05/30 12:36:39;;;;;;;2.33;2.10;;;32.90;39.90;;;;;;5119496;27;20650;-70
2023/05/30 12:39:07;;;;;;;2.10;1.90;;;33.20;38.20;;;;;;5121356;27;20849;-70
2023/05/30 12:41:36;;;;;;;1.73;1.57;;;34.00;37.20;;;;;;5122546;27;20658;-70
2023/05/30 12:44:03;;;;;;;2.17;2.03;;;34.00;37.20;;;;;;5120885;27;21244;-70
2023/05/30 12:46:33;;;;;;;2.67;2.10;;;33.70;38.20;;;;;;5118734;27;21004;-69
2023/05/30 12:49:00;;;;;;;1.60;1.43;;;31.60;37.60;;;;;;5118108;27;20634;-69
2023/05/30 12:51:27;;;;;;;1.83;1.73;;;31.90;38.90;;;;;;5122065;27;20730;-69
2023/05/30 12:53:54;;;;;;;2.20;2.00;;;32.20;39.90;;;;;;5122354;27;21205;-69